createdAt,value
2022-08-07T00:00:26.429Z,14.80
2022-08-07T00:02:56.465Z,14.80
2022-08-07T00:05:24.675Z,14.80
2022-08-07T00:08:00.116Z,14.80
2022-08-07T00:10:30.989Z,14.80
2022-08-07T00:13:02.031Z,14.70
2022-08-07T00:15:38.047Z,14.70
2022-08-07T00:18:18.913Z,14.70
2022-08-07T00:20:49.631Z,14.60
2022-08-07T00:23:17.615Z,14.60
2022-08-07T00:25:51.695Z,14.50
2022-08-07T00:28:33.686Z,14.50
2022-08-07T00:31:05.745Z,14.50
2022-08-07T00:33:34.834Z,14.50
2022-08-07T00:36:02.665Z,14.50
2022-08-07T00:38:31.259Z,14.40
2022-08-07T00:41:00.205Z,14.40
2022-08-07T00:44:01.847Z,14.30
2022-08-07T00:46:15.111Z,14.30
2022-08-07T00:48:42.666Z,14.20
2022-08-07T00:51:10.981Z,14.10
2022-08-07T00:53:50.600Z,14.10
2022-08-07T00:56:23.502Z,14.10
2022-08-07T00:58:58.916Z,14.10
2022-08-07T01:01:26.553Z,14.10
2022-08-07T01:04:00.182Z,14.10
2022-08-07T01:06:29.235Z,14.20
2022-08-07T01:08:58.587Z,14.20
2022-08-07T01:12:09.099Z,14.30
2022-08-07T01:14:28.347Z,14.20
2022-08-07T01:16:57.650Z,14.30
2022-08-07T01:19:27.391Z,14.40
2022-08-07T01:22:00.641Z,14.40
2022-08-07T01:24:36.475Z,14.50
2022-08-07T01:27:05.192Z,14.60
2022-08-07T01:29:46.797Z,14.60
2022-08-07T01:32:15.461Z,14.70
2022-08-07T01:34:47.156Z,14.70
2022-08-07T01:37:25.151Z,14.70
2022-08-07T01:39:59.182Z,14.70
2022-08-07T01:42:39.338Z,14.80
2022-08-07T01:45:22.784Z,14.80
2022-08-07T01:48:17.762Z,14.80
2022-08-07T01:50:46.247Z,14.90
2022-08-07T01:53:21.058Z,14.90
2022-08-07T01:56:01.387Z,14.90
2022-08-07T01:58:33.307Z,14.90
2022-08-07T02:01:10.155Z,14.90
2022-08-07T02:03:54.102Z,14.90
2022-08-07T02:06:31.707Z,15.00
2022-08-07T02:09:04.744Z,15.10
2022-08-07T02:12:03.310Z,15.10
2022-08-07T02:14:36.659Z,15.10
2022-08-07T02:17:24.783Z,15.10
2022-08-07T02:20:06.751Z,15.10
2022-08-07T02:22:41.350Z,15.20
2022-08-07T02:25:17.268Z,15.20
2022-08-07T02:27:54.523Z,15.20
2022-08-07T02:30:24.029Z,15.20
2022-08-07T02:33:00.667Z,15.20
2022-08-07T02:36:29.081Z,15.30
2022-08-07T02:38:31.940Z,15.30
2022-08-07T02:41:03.802Z,15.30
2022-08-07T02:43:35.098Z,15.30
2022-08-07T02:46:07.888Z,15.40
2022-08-07T02:48:39.059Z,15.30
2022-08-07T02:51:42.812Z,15.40
2022-08-07T02:54:05.596Z,15.40
2022-08-07T02:56:33.628Z,15.40
2022-08-07T02:59:03.204Z,15.30
2022-08-07T03:01:36.667Z,15.30
2022-08-07T03:04:14.865Z,15.40
2022-08-07T03:06:45.886Z,15.40
2022-08-07T03:09:43.455Z,15.40
2022-08-07T03:12:08.090Z,15.40
2022-08-07T03:14:52.289Z,15.40
2022-08-07T03:17:22.110Z,15.50
2022-08-07T03:19:55.071Z,15.40
2022-08-07T03:22:29.614Z,15.50
2022-08-07T03:25:02.528Z,15.50
2022-08-07T03:27:59.117Z,15.40
2022-08-07T03:30:27.382Z,15.40
2022-08-07T03:32:58.833Z,15.40
2022-08-07T03:35:43.524Z,15.50
2022-08-07T03:38:17.345Z,15.50
2022-08-07T03:40:53.905Z,15.50
2022-08-07T03:43:26.937Z,15.40
2022-08-07T03:46:03.056Z,15.50
2022-08-07T03:48:33.607Z,15.50
2022-08-07T03:51:21.997Z,15.40
2022-08-07T03:54:33.432Z,15.50
2022-08-07T03:57:03.616Z,15.40
2022-08-07T03:59:33.993Z,15.40
2022-08-07T04:02:01.881Z,15.40
2022-08-07T04:04:32.674Z,15.40
2022-08-07T04:07:16.618Z,15.40
2022-08-07T04:09:50.499Z,15.40
2022-08-07T04:12:27.782Z,15.40
2022-08-07T04:14:59.413Z,15.40
2022-08-07T04:18:32.000Z,15.40
2022-08-07T04:20:17.623Z,15.50
2022-08-07T04:22:53.769Z,15.50
2022-08-07T04:25:30.690Z,15.60
2022-08-07T04:28:08.844Z,15.60
2022-08-07T04:30:55.154Z,15.60
2022-08-07T04:33:28.527Z,15.60
2022-08-07T04:35:57.090Z,15.70
2022-08-07T04:38:28.854Z,15.90
2022-08-07T04:40:58.137Z,16.00
2022-08-07T04:44:09.811Z,16.10
2022-08-07T04:47:04.052Z,16.20
2022-08-07T04:49:58.066Z,16.40
2022-08-07T04:52:52.476Z,16.40
2022-08-07T04:58:11.161Z,16.60
2022-08-07T04:59:16.711Z,16.60
2022-08-07T05:01:30.872Z,16.60
2022-08-07T05:04:17.211Z,16.60
2022-08-07T05:06:54.820Z,16.60
2022-08-07T05:09:45.633Z,16.50
2022-08-07T05:12:27.363Z,16.40
2022-08-07T05:15:31.387Z,16.40
2022-08-07T05:18:08.693Z,16.40
2022-08-07T05:20:42.877Z,16.50
2022-08-07T05:23:18.219Z,16.40
2022-08-07T05:26:13.702Z,16.60
2022-08-07T05:28:40.482Z,16.60
2022-08-07T05:31:12.929Z,16.70
2022-08-07T05:33:51.409Z,16.90
2022-08-07T05:36:32.214Z,17.00
2022-08-07T05:40:07.157Z,17.20
2022-08-07T05:42:03.590Z,17.20
2022-08-07T05:44:35.649Z,17.40
2022-08-07T05:47:18.292Z,17.50
2022-08-07T05:49:50.935Z,17.80
2022-08-07T05:52:32.558Z,18.00
2022-08-07T05:55:10.721Z,18.20
2022-08-07T05:57:44.819Z,18.40
2022-08-07T06:00:16.057Z,18.60
2022-08-07T06:02:53.739Z,18.60
2022-08-07T06:05:28.311Z,18.80
2022-08-07T06:08:13.535Z,18.80
2022-08-07T06:10:51.235Z,19.10
2022-08-07T06:14:10.732Z,19.10
2022-08-07T06:16:13.522Z,19.10
2022-08-07T06:18:51.822Z,19.60
2022-08-07T06:22:16.135Z,19.60
2022-08-07T06:24:46.200Z,20.00
2022-08-07T06:27:03.717Z,20.50
2022-08-07T06:29:34.489Z,20.60
2022-08-07T06:32:07.008Z,20.70
2022-08-07T06:34:35.104Z,20.60
2022-08-07T06:37:03.912Z,20.60
2022-08-07T06:40:17.237Z,20.90
2022-08-07T06:42:35.019Z,20.70
2022-08-07T06:45:24.339Z,20.70
2022-08-07T06:47:58.668Z,20.90
2022-08-07T06:50:36.789Z,21.30
2022-08-07T06:53:09.225Z,21.10
2022-08-07T06:56:01.388Z,21.20
2022-08-07T06:58:33.068Z,21.40
2022-08-07T07:01:09.537Z,20.80
2022-08-07T07:03:48.926Z,20.90
2022-08-07T07:06:26.087Z,21.60
2022-08-07T07:08:56.788Z,22.00
2022-08-07T07:12:08.495Z,22.20
2022-08-07T07:14:15.948Z,22.20
2022-08-07T07:16:50.774Z,21.80
2022-08-07T07:19:55.149Z,22.60
2022-08-07T07:22:36.138Z,22.90
2022-08-07T07:26:30.591Z,23.00
2022-08-07T07:27:56.167Z,22.70
2022-08-07T07:30:38.510Z,22.20
2022-08-07T07:33:13.516Z,22.20
2022-08-07T07:36:03.962Z,21.80
2022-08-07T07:38:34.751Z,21.20
2022-08-07T07:41:05.888Z,21.20
2022-08-07T07:44:13.920Z,21.00
2022-08-07T07:46:40.537Z,20.70
2022-08-07T07:50:35.972Z,21.20
2022-08-07T07:52:13.365Z,21.40
2022-08-07T07:54:50.845Z,21.40
2022-08-07T07:57:43.555Z,21.50
2022-08-07T08:00:10.561Z,21.60
2022-08-07T08:03:04.816Z,21.30
2022-08-07T08:05:54.089Z,22.10
2022-08-07T08:08:35.015Z,22.70
2022-08-07T08:11:13.427Z,23.30
2022-08-07T08:13:54.365Z,23.80
2022-08-07T08:16:26.728Z,23.60
2022-08-07T08:19:00.524Z,23.30
2022-08-07T08:22:03.110Z,22.90
2022-08-07T08:25:04.861Z,22.20
2022-08-07T08:27:56.572Z,22.70
2022-08-07T08:30:29.679Z,21.90
2022-08-07T08:33:01.851Z,22.10
2022-08-07T08:35:39.489Z,22.30
2022-08-07T08:38:16.738Z,21.80
2022-08-07T08:40:48.150Z,21.80
2022-08-07T08:43:20.271Z,21.50
2022-08-07T08:46:06.814Z,21.70
2022-08-07T08:48:47.474Z,22.20
2022-08-07T08:52:12.649Z,22.10
2022-08-07T08:54:29.022Z,22.20
2022-08-07T08:56:58.744Z,21.40
2022-08-07T08:59:48.391Z,21.90
2022-08-07T09:02:35.220Z,23.40
2022-08-07T09:05:05.947Z,24.10
2022-08-07T09:07:46.502Z,23.80
2022-08-07T09:10:29.656Z,23.30
2022-08-07T09:13:37.647Z,23.00
2022-08-07T09:16:23.000Z,24.60
2022-08-07T09:19:53.455Z,23.80
2022-08-07T09:24:29.400Z,23.90
2022-08-07T09:25:17.146Z,24.70
2022-08-07T09:28:00.352Z,25.80
2022-08-07T09:30:33.593Z,26.20
2022-08-07T09:33:16.645Z,25.70
2022-08-07T09:36:05.602Z,26.40
2022-08-07T09:38:34.321Z,26.20
2022-08-07T09:41:10.429Z,30.10
2022-08-07T09:44:05.498Z,32.30
2022-08-07T09:47:56.134Z,35.70
2022-08-07T09:50:02.197Z,38.60
2022-08-07T09:52:51.931Z,37.90
2022-08-07T09:55:29.467Z,36.80
2022-08-07T09:58:04.280Z,35.50
2022-08-07T10:00:58.402Z,34.50
2022-08-07T10:04:05.602Z,33.30
2022-08-07T10:06:35.859Z,30.40
2022-08-07T10:09:07.638Z,29.70
2022-08-07T10:12:01.555Z,29.60
2022-08-07T10:14:40.049Z,27.90
2022-08-07T10:17:23.954Z,26.60
2022-08-07T10:20:15.677Z,26.20
2022-08-07T10:23:03.122Z,26.50
2022-08-07T10:25:54.193Z,25.70
2022-08-07T10:28:37.734Z,27.00
2022-08-07T10:31:38.624Z,27.80
2022-08-07T10:34:18.416Z,30.20
2022-08-07T10:37:18.015Z,30.60
2022-08-07T10:40:03.039Z,29.10
2022-08-07T10:42:52.820Z,28.90
2022-08-07T10:45:44.098Z,29.70
2022-08-07T10:48:35.153Z,30.30
2022-08-07T10:51:16.906Z,28.60
2022-08-07T10:54:17.360Z,28.20
2022-08-07T10:56:58.211Z,29.20
2022-08-07T10:59:30.332Z,29.30
2022-08-07T11:02:33.099Z,27.40
2022-08-07T11:05:08.640Z,28.60
2022-08-07T11:07:59.327Z,28.50
2022-08-07T11:10:29.039Z,26.90
2022-08-07T11:14:44.810Z,27.80
2022-08-07T11:16:20.309Z,28.60
2022-08-07T11:19:06.810Z,29.30
2022-08-07T11:22:01.104Z,28.80
2022-08-07T11:24:45.677Z,27.80
2022-08-07T11:27:13.844Z,27.70
2022-08-07T11:29:53.894Z,27.40
2022-08-07T11:32:47.981Z,27.40
2022-08-07T11:35:31.247Z,27.70
2022-08-07T11:38:12.470Z,26.90
2022-08-07T11:41:10.794Z,26.30
2022-08-07T11:44:12.391Z,27.00
2022-08-07T11:46:50.160Z,26.00
2022-08-07T11:50:25.488Z,27.20
2022-08-07T11:52:42.754Z,27.00
2022-08-07T11:55:18.971Z,26.50
2022-08-07T11:58:33.087Z,26.00
2022-08-07T12:01:06.653Z,24.80
2022-08-07T12:03:42.117Z,25.10
2022-08-07T12:06:37.430Z,24.90
2022-08-07T12:09:24.468Z,25.40
2022-08-07T12:12:12.310Z,26.40
2022-08-07T12:14:55.625Z,26.40
2022-08-07T12:17:33.871Z,26.60
2022-08-07T12:20:30.107Z,25.50
2022-08-07T12:23:01.560Z,25.70
2022-08-07T12:26:21.347Z,24.90
2022-08-07T12:28:49.708Z,25.00
2022-08-07T12:31:53.228Z,26.10
2022-08-07T12:34:30.424Z,25.10
2022-08-07T12:36:58.715Z,25.00
2022-08-07T12:39:42.729Z,24.50
2022-08-07T12:42:13.628Z,24.60
2022-08-07T12:44:45.119Z,25.20
2022-08-07T12:47:31.038Z,24.90
2022-08-07T12:50:34.044Z,23.90
2022-08-07T12:53:22.490Z,24.40
2022-08-07T12:56:03.422Z,24.10
2022-08-07T12:58:39.627Z,24.00
2022-08-07T13:01:32.521Z,23.90
2022-08-07T13:04:34.023Z,23.80
2022-08-07T13:08:11.674Z,23.50
2022-08-07T13:10:29.122Z,23.30
2022-08-07T13:13:02.900Z,23.50
2022-08-07T13:16:09.609Z,23.50
2022-08-07T13:18:49.016Z,23.90
2022-08-07T13:21:35.066Z,23.80
2022-08-07T13:24:25.671Z,24.10
2022-08-07T13:27:07.160Z,24.40
2022-08-07T13:29:42.285Z,24.80
2022-08-07T13:32:31.454Z,24.50
2022-08-07T13:35:08.943Z,24.70
2022-08-07T13:37:59.002Z,24.90
2022-08-07T13:40:43.625Z,24.70
2022-08-07T13:43:13.375Z,24.70
2022-08-07T13:46:21.923Z,24.90
2022-08-07T13:48:35.184Z,24.80
2022-08-07T13:51:27.446Z,24.90
2022-08-07T13:54:05.076Z,24.40
2022-08-07T13:56:36.037Z,24.50
2022-08-07T13:59:13.264Z,24.60
2022-08-07T14:01:55.579Z,24.50
2022-08-07T14:04:35.796Z,24.60
2022-08-07T14:07:09.537Z,24.30
2022-08-07T14:10:12.399Z,24.80
2022-08-07T14:12:36.262Z,24.90
2022-08-07T14:15:18.609Z,24.50
2022-08-07T14:18:12.462Z,24.10
2022-08-07T14:20:42.249Z,24.30
2022-08-07T14:23:31.552Z,23.90
2022-08-07T14:26:11.014Z,23.80
2022-08-07T14:29:02.017Z,23.60
2022-08-07T14:31:42.486Z,23.30
2022-08-07T14:34:12.264Z,23.20
2022-08-07T14:36:56.241Z,23.10
2022-08-07T14:40:17.300Z,22.70
2022-08-07T14:42:20.069Z,22.60
2022-08-07T14:44:52.849Z,22.60
2022-08-07T14:47:21.477Z,22.50
2022-08-07T14:49:56.790Z,22.50
2022-08-07T14:55:17.730Z,21.80
2022-08-07T14:57:58.648Z,21.90
2022-08-07T15:00:30.261Z,22.10
2022-08-07T15:02:59.747Z,22.10
2022-08-07T15:05:30.345Z,22.10
2022-08-07T15:08:04.225Z,22.20
2022-08-07T15:10:32.604Z,22.30
2022-08-07T15:13:12.325Z,22.10
2022-08-07T15:15:52.561Z,21.90
2022-08-07T15:18:34.087Z,21.80
2022-08-07T15:25:13.685Z,21.70
2022-08-07T15:27:08.261Z,21.80
2022-08-07T15:30:09.205Z,21.80
2022-08-07T15:32:39.513Z,21.70
2022-08-07T15:35:14.881Z,21.90
2022-08-07T15:38:18.158Z,21.80
2022-08-07T15:40:38.681Z,21.80
2022-08-07T15:43:53.358Z,21.50
2022-08-07T15:46:32.237Z,21.50
2022-08-07T15:49:13.122Z,21.50
2022-08-07T15:54:27.815Z,21.30
2022-08-07T15:56:59.431Z,21.30
2022-08-07T15:59:37.968Z,21.20
2022-08-07T16:02:08.797Z,21.40
2022-08-07T16:04:38.166Z,21.40
2022-08-07T16:08:28.406Z,21.40
2022-08-07T16:10:01.513Z,21.20
2022-08-07T16:12:38.091Z,21.30
2022-08-07T16:15:57.964Z,20.90
2022-08-07T16:18:50.974Z,20.90
2022-08-07T16:22:01.652Z,20.80
2022-08-07T16:24:52.591Z,20.70
2022-08-07T16:27:41.707Z,20.70
2022-08-07T16:30:31.056Z,20.70
2022-08-07T16:34:03.054Z,20.50
2022-08-07T16:36:31.484Z,20.40
2022-08-07T16:39:14.784Z,20.40
2022-08-07T16:41:54.344Z,20.20
2022-08-07T16:44:47.200Z,20.20
2022-08-07T16:47:53.060Z,20.00
2022-08-07T16:50:39.307Z,19.90
2022-08-07T16:54:03.108Z,19.80
2022-08-07T16:56:20.481Z,19.70
2022-08-07T16:59:11.235Z,19.60
2022-08-07T17:02:09.230Z,19.50
2022-08-07T17:04:58.867Z,19.50
2022-08-07T17:07:55.626Z,19.40
2022-08-07T17:10:54.778Z,19.40
2022-08-07T17:13:41.718Z,19.30
2022-08-07T17:16:29.387Z,19.10
2022-08-07T17:18:57.699Z,19.10
2022-08-07T17:21:28.953Z,18.90
2022-08-07T17:24:32.000Z,18.80
2022-08-07T17:27:09.598Z,18.70
2022-08-07T17:30:14.989Z,18.60
2022-08-07T17:33:00.446Z,18.60
2022-08-07T17:35:54.681Z,18.50
2022-08-07T17:38:33.836Z,18.50
2022-08-07T17:42:01.595Z,18.40
2022-08-07T17:44:15.647Z,18.30
2022-08-07T17:47:03.261Z,18.20
2022-08-07T17:49:44.575Z,18.20
2022-08-07T17:52:18.677Z,18.10
2022-08-07T17:54:54.286Z,18.00
2022-08-07T17:57:58.801Z,18.00
2022-08-07T18:00:34.595Z,18.00
2022-08-07T18:03:18.139Z,17.90
2022-08-07T18:06:01.556Z,17.90
2022-08-07T18:08:33.319Z,17.90
2022-08-07T18:12:08.290Z,17.80
2022-08-07T18:14:16.458Z,17.70
2022-08-07T18:16:57.697Z,17.70
2022-08-07T18:21:02.722Z,17.70
2022-08-07T18:22:26.893Z,17.70
2022-08-07T18:25:24.245Z,17.70
2022-08-07T18:27:57.860Z,17.70
2022-08-07T18:30:36.830Z,17.60
2022-08-07T18:33:15.441Z,17.60
2022-08-07T18:35:55.747Z,17.60
2022-08-07T18:38:58.004Z,17.60
2022-08-07T18:41:23.869Z,17.50
2022-08-07T18:44:26.857Z,17.50
2022-08-07T18:47:11.517Z,17.50
2022-08-07T18:50:19.374Z,17.40
2022-08-07T18:52:56.713Z,17.40
2022-08-07T18:55:56.156Z,17.30
2022-08-07T18:58:30.115Z,17.30
2022-08-07T19:02:18.841Z,17.30
2022-08-07T19:04:37.921Z,17.30
2022-08-07T19:07:34.571Z,17.20
2022-08-07T19:10:10.929Z,17.20
2022-08-07T19:12:53.343Z,17.30
2022-08-07T19:16:02.389Z,17.20
2022-08-07T19:18:11.543Z,17.20
2022-08-07T19:21:08.932Z,17.20
2022-08-07T19:23:58.268Z,17.20
2022-08-07T19:26:30.134Z,17.20
2022-08-07T19:31:05.332Z,17.20
2022-08-07T19:32:08.257Z,17.20
2022-08-07T19:34:42.320Z,17.10
2022-08-07T19:37:18.470Z,17.20
2022-08-07T19:40:01.609Z,17.20
2022-08-07T19:42:31.851Z,17.20
2022-08-07T19:45:11.301Z,17.10
2022-08-07T19:47:43.265Z,17.10
2022-08-07T19:50:43.192Z,17.10
2022-08-07T19:53:00.931Z,17.10
2022-08-07T19:55:56.613Z,17.10
2022-08-07T19:58:27.930Z,17.10
2022-08-07T20:00:57.400Z,17.00
2022-08-07T20:03:33.547Z,17.10
2022-08-07T20:06:04.857Z,17.10
2022-08-07T20:08:38.455Z,17.10
2022-08-07T20:11:12.134Z,17.10
2022-08-07T20:13:45.497Z,17.10
2022-08-07T20:16:36.471Z,17.10
2022-08-07T20:19:05.738Z,17.10
2022-08-07T20:21:41.623Z,17.10
2022-08-07T20:24:20.885Z,17.10
2022-08-07T20:26:54.559Z,17.10
2022-08-07T20:29:48.147Z,17.10
2022-08-07T20:32:40.258Z,17.10
2022-08-07T20:35:16.036Z,17.10
2022-08-07T20:37:57.743Z,17.10
2022-08-07T20:40:33.367Z,17.10
2022-08-07T20:43:03.103Z,17.10
2022-08-07T20:46:28.478Z,17.10
2022-08-07T20:48:30.056Z,17.00
2022-08-07T20:51:09.430Z,17.00
2022-08-07T20:54:04.131Z,17.10
2022-08-07T20:56:29.198Z,17.00
2022-08-07T20:58:59.034Z,17.00
2022-08-07T21:01:36.583Z,17.00
2022-08-07T21:04:23.185Z,16.90
2022-08-07T21:06:56.622Z,16.90
2022-08-07T21:09:29.829Z,16.90
2022-08-07T21:12:28.961Z,16.90
2022-08-07T21:15:00.825Z,16.90
2022-08-07T21:18:03.204Z,16.90
2022-08-07T21:20:26.556Z,16.90
2022-08-07T21:22:58.663Z,16.90
2022-08-07T21:25:39.269Z,16.90
2022-08-07T21:28:13.459Z,16.80
2022-08-07T21:31:01.413Z,16.80
2022-08-07T21:33:41.340Z,16.70
2022-08-07T21:36:32.750Z,16.70
2022-08-07T21:39:46.126Z,16.60
2022-08-07T21:42:41.783Z,16.60
2022-08-07T21:46:07.677Z,16.60
2022-08-07T21:48:28.601Z,16.40
2022-08-07T21:51:19.521Z,16.30
2022-08-07T21:53:53.690Z,16.10
2022-08-07T21:56:36.632Z,16.00
2022-08-07T21:59:07.330Z,16.00
2022-08-07T22:02:11.340Z,15.90
2022-08-07T22:04:28.955Z,15.90
2022-08-07T22:07:07.702Z,15.60
2022-08-07T22:09:54.415Z,15.80
2022-08-07T22:12:32.477Z,15.80
2022-08-07T22:15:00.626Z,15.90
2022-08-07T22:17:35.952Z,15.80
2022-08-07T22:20:04.638Z,15.80
2022-08-07T22:22:44.772Z,15.80
2022-08-07T22:25:15.828Z,15.80
2022-08-07T22:28:29.758Z,15.80
2022-08-07T22:31:05.336Z,15.80
2022-08-07T22:33:56.312Z,15.70
2022-08-07T22:36:46.393Z,15.80
2022-08-07T22:39:17.544Z,15.60
2022-08-07T22:42:03.281Z,15.60
2022-08-07T22:44:58.872Z,15.50
2022-08-07T22:47:33.325Z,15.50
2022-08-07T22:50:09.918Z,15.50
2022-08-07T22:52:45.802Z,15.40
2022-08-07T22:55:32.485Z,15.40
2022-08-07T22:58:13.317Z,15.30
2022-08-07T23:00:53.320Z,15.30
2022-08-07T23:03:28.345Z,15.20
2022-08-07T23:06:15.015Z,15.20
2022-08-07T23:08:58.570Z,15.10
2022-08-07T23:11:59.115Z,15.10
2022-08-07T23:14:38.313Z,14.90
2022-08-07T23:17:15.726Z,14.80
2022-08-07T23:20:06.303Z,14.80
2022-08-07T23:22:37.209Z,14.70
2022-08-07T23:25:11.730Z,14.80
2022-08-07T23:28:21.410Z,14.70
2022-08-07T23:30:45.776Z,14.80
2022-08-07T23:34:33.672Z,14.80
2022-08-07T23:36:32.428Z,14.70
2022-08-07T23:39:22.039Z,14.80
2022-08-07T23:42:04.050Z,14.70
2022-08-07T23:44:57.441Z,14.80
2022-08-07T23:47:25.986Z,14.80
2022-08-07T23:50:16.613Z,14.70
2022-08-07T23:53:08.442Z,14.50
2022-08-07T23:55:58.177Z,14.50
2022-08-07T23:58:38.252Z,14.50
